Time;durP1;ratioP1;P1;durP2;ratioP2;P2;SDS_P1;SDS_P2;PMS_P1;PMS_P2;Temp;Humidity;BMP_temperature;BMP_pressure;BME280_temperature;BME280_humidity;BME280_pressure;Samples;Min_cycle;Max_cycle;Signal;HPM_P1;HPM_P2
2022/05/14 00:00:12;;;;;;;;;;;;;;;;;;5051313;28;20390;-53
2022/05/14 00:02:38;;;;;;;;;;;;;;;;;;5052282;28;20378;-53
2022/05/14 00:05:05;;;;;;;;;;;;;;;;;;5055747;28;20268;-53
2022/05/14 00:07:31;;;;;;;;;;;;;;;;;;5055124;28;20011;-51
2022/05/14 00:09:58;;;;;;;;;;;;;;;;;;5055083;28;20353;-51
2022/05/14 00:15:09;;;;;;;;;;;;;;;;;;5055669;28;19916;-54
2022/05/14 00:17:36;;;;;;;;;;;;;;;;;;5055242;28;20012;-56
2022/05/14 00:20:02;;;;;;;;;;;;;;;;;;5055024;28;19909;-48
2022/05/14 00:22:28;;;;;;;;;;;;;;;;;;5055127;28;19956;-54
2022/05/14 00:24:55;;;;;;;;;;;;;;;;;;5055296;28;19955;-47
2022/05/14 00:27:22;;;;;;;;;;;;;;;;;;5054706;28;19909;-55
2022/05/14 00:29:48;;;;;;;;;;;;;;;;;;5055186;28;19944;-53
2022/05/14 00:32:15;;;;;;;;;;;;;;;;;;5055189;28;19954;-46
2022/05/14 00:34:41;;;;;;;;;;;;;;;;;;5054890;28;19959;-56
2022/05/14 00:37:07;;;;;;;;;;;;;;;;;;5055138;28;19909;-55
2022/05/14 00:39:34;;;;;;;;;;;;;;;;;;5054654;28;19992;-58
2022/05/14 00:42:00;;;;;;;;;;;;;;;;;;5054276;28;19916;-56
2022/05/14 00:44:27;;;;;;;;;;;;;;;;;;5054306;28;20025;-58
2022/05/14 00:46:53;;;;;;;;;;;;;;;;;;5054884;28;19909;-55
2022/05/14 00:49:20;;;;;;;;;;;;;;;;;;5054944;28;20320;-49
2022/05/14 00:51:46;;;;;;;;;;;;;;;;;;5054860;28;19909;-59
2022/05/14 00:54:13;;;;;;;;;;;;;;;;;;5054612;28;20252;-52
2022/05/14 00:56:40;;;;;;;;;;;;;;;;;;5054546;28;20275;-55
2022/05/14 00:59:06;;;;;;;;;;;;;;;;;;5054590;28;19966;-54
2022/05/14 01:01:33;;;;;;;;;;;;;;;;;;5054535;28;19917;-54
2022/05/14 01:03:59;;;;;;;;;;;;;;;;;;5054274;28;20371;-50
2022/05/14 01:06:26;;;;;;;;;;;;;;;;;;5053112;28;20403;-53
2022/05/14 01:08:52;;;;;;;;;;;;;;;;;;5053117;28;20328;-44
2022/05/14 01:11:19;;;;;;;;;;;;;;;;;;5054069;28;20408;-58
2022/05/14 01:13:45;;;;;;;;;;;;;;;;;;5054056;28;19975;-56
2022/05/14 01:16:12;;;;;;;;;;;;;;;;;;5054211;28;19908;-58
2022/05/14 01:18:38;;;;;;;;;;;;;;;;;;5054113;28;19932;-58
2022/05/14 01:21:04;;;;;;;;;;;;;;;;;;5054129;28;19960;-57
2022/05/14 01:23:31;;;;;;;;;;;;;;;;;;5052866;28;20002;-57
2022/05/14 01:28:42;;;;;;;;;;;;;;;;;;5053945;28;20299;-50
2022/05/14 01:31:08;;;;;;;;;;;;;;;;;;5053549;28;19909;-57
2022/05/14 01:33:36;;;;;;;;;;;;;;;;;;5053412;28;19919;-54
2022/05/14 01:36:02;;;;;;;;;;;;;;;;;;5053685;28;20003;-59
2022/05/14 01:38:29;;;;;;;;;;;;;;;;;;5054114;28;19913;-59
2022/05/14 01:40:55;;;;;;;;;;;;;;;;;;5053383;28;20340;-51
2022/05/14 01:43:22;;;;;;;;;;;;;;;;;;5053269;28;20004;-57
2022/05/14 01:45:48;;;;;;;;;;;;;;;;;;5053508;28;19962;-55
2022/05/14 01:48:15;;;;;;;;;;;;;;;;;;5052728;28;20291;-53
2022/05/14 01:50:41;;;;;;;;;;;;;;;;;;5053691;28;19915;-57
2022/05/14 01:53:08;;;;;;;;;;;;;;;;;;5053608;28;20391;-57
2022/05/14 01:55:34;;;;;;;;;;;;;;;;;;5053367;28;19913;-53
2022/05/14 01:58:36;;;;;;;;;;;;;;;;;;5052138;28;19916;-52
2022/05/14 02:00:47;;;;;;;;;;;;;;;;;;5053450;28;19975;-49
2022/05/14 02:03:13;;;;;;;;;;;;;;;;;;5053316;28;19947;-53
2022/05/14 02:05:40;;;;;;;;;;;;;;;;;;5053146;28;20359;-60
2022/05/14 02:08:06;;;;;;;;;;;;;;;;;;5053166;28;20008;-48
2022/05/14 02:10:33;;;;;;;;;;;;;;;;;;5052912;28;20253;-52
2022/05/14 02:12:59;;;;;;;;;;;;;;;;;;5052928;28;20337;-57
2022/05/14 02:15:26;;;;;;;;;;;;;;;;;;5052947;28;19909;-55
2022/05/14 02:17:52;;;;;;;;;;;;;;;;;;5052764;28;20017;-54
2022/05/14 02:20:19;;;;;;;;;;;;;;;;;;5052786;28;19962;-59
2022/05/14 02:22:45;;;;;;;;;;;;;;;;;;5053057;28;20314;-55
2022/05/14 02:25:12;;;;;;;;;;;;;;;;;;5052069;28;20259;-51
2022/05/14 02:27:38;;;;;;;;;;;;;;;;;;5052908;28;19963;-58
2022/05/14 02:30:05;;;;;;;;;;;;;;;;;;5052900;28;20363;-50
2022/05/14 02:32:31;;;;;;;;;;;;;;;;;;5052302;28;19913;-58
2022/05/14 02:34:59;;;;;;;;;;;;;;;;;;5052672;28;20390;-58
2022/05/14 02:37:25;;;;;;;;;;;;;;;;;;5053452;28;19974;-52
2022/05/14 02:39:51;;;;;;;;;;;;;;;;;;5052691;28;19995;-51
2022/05/14 02:42:18;;;;;;;;;;;;;;;;;;5052360;28;20024;-55
2022/05/14 02:44:44;;;;;;;;;;;;;;;;;;5052859;28;19909;-41
2022/05/14 02:47:11;;;;;;;;;;;;;;;;;;5053009;28;19909;-52
2022/05/14 02:49:37;;;;;;;;;;;;;;;;;;5052942;28;19959;-41
2022/05/14 02:52:05;;;;;;;;;;;;;;;;;;5051566;28;20394;-58
2022/05/14 02:54:31;;;;;;;;;;;;;;;;;;5053024;28;19931;-48
2022/05/14 02:56:58;;;;;;;;;;;;;;;;;;5053071;28;19912;-55
2022/05/14 02:59:24;;;;;;;;;;;;;;;;;;5052286;28;19967;-57
2022/05/14 03:01:52;;;;;;;;;;;;;;;;;;5051946;28;19993;-61
2022/05/14 03:04:18;;;;;;;;;;;;;;;;;;5052811;28;20385;-60
2022/05/14 03:06:45;;;;;;;;;;;;;;;;;;5052296;28;19917;-47
2022/05/14 03:09:11;;;;;;;;;;;;;;;;;;5052300;28;19909;-56
2022/05/14 03:11:38;;;;;;;;;;;;;;;;;;5051881;28;19995;-61
2022/05/14 03:14:04;;;;;;;;;;;;;;;;;;5052067;28;20414;-54
2022/05/14 03:16:31;;;;;;;;;;;;;;;;;;5052342;28;19956;-60
2022/05/14 03:18:57;;;;;;;;;;;;;;;;;;5052253;28;19948;-56
2022/05/14 03:21:24;;;;;;;;;;;;;;;;;;5052674;28;20391;-49
2022/05/14 03:23:50;;;;;;;;;;;;;;;;;;5052539;28;20359;-51
2022/05/14 03:26:16;;;;;;;;;;;;;;;;;;5051840;28;20265;-56
2022/05/14 03:28:43;;;;;;;;;;;;;;;;;;5052487;28;20323;-60
2022/05/14 03:31:09;;;;;;;;;;;;;;;;;;5052414;28;20394;-56
2022/05/14 03:33:36;;;;;;;;;;;;;;;;;;5052111;28;20307;-57
2022/05/14 03:36:03;;;;;;;;;;;;;;;;;;5051939;28;20316;-47
2022/05/14 03:38:29;;;;;;;;;;;;;;;;;;5056001;28;19909;-56
2022/05/14 03:40:56;;;;;;;;;;;;;;;;;;5056523;28;19928;-46
2022/05/14 03:43:22;;;;;;;;;;;;;;;;;;5056629;28;19919;-44
2022/05/14 03:45:49;;;;;;;;;;;;;;;;;;5056685;28;19908;-49
2022/05/14 03:48:15;;;;;;;;;;;;;;;;;;5056540;28;20326;-53
2022/05/14 03:50:42;;;;;;;;;;;;;;;;;;5056088;28;20008;-52
2022/05/14 03:53:08;;;;;;;;;;;;;;;;;;5056376;28;19943;-52
2022/05/14 03:55:35;;;;;;;;;;;;;;;;;;5055767;28;20050;-53
2022/05/14 03:58:01;;;;;;;;;;;;;;;;;;5048301;28;19913;-55
2022/05/14 04:00:28;;;;;;;;;;;;;;;;;;5053415;28;19916;-55
2022/05/14 04:02:54;;;;;;;;;;;;;;;;;;5056137;28;19921;-56
2022/05/14 04:05:21;;;;;;;;;;;;;;;;;;5054726;28;19963;-54
2022/05/14 04:07:48;;;;;;;;;;;;;;;;;;5053920;28;19921;-53
2022/05/14 04:10:16;;;;;;;;;;;;;;;;;;5051057;28;20440;-46
2022/05/14 04:12:42;;;;;;;;;;;;;;;;;;5053961;28;19952;-47
2022/05/14 04:15:12;;;;;;;;;;;;;;;;;;5053691;28;20279;-50
2022/05/14 04:17:38;;;;;;;;;;;;;;;;;;5054637;28;20007;-52
2022/05/14 04:20:05;;;;;;;;;;;;;;;;;;5055058;28;19909;-58
2022/05/14 04:22:31;;;;;;;;;;;;;;;;;;5054039;28;19962;-48
2022/05/14 04:24:58;;;;;;;;;;;;;;;;;;5052342;28;19909;-43
2022/05/14 04:27:24;;;;;;;;;;;;;;;;;;5055205;28;19951;-47
2022/05/14 04:29:52;;;;;;;;;;;;;;;;;;5051545;28;19909;-51
2022/05/14 04:32:18;;;;;;;;;;;;;;;;;;5053223;28;19970;-49
2022/05/14 04:34:45;;;;;;;;;;;;;;;;;;5053281;28;19913;-49
2022/05/14 04:37:11;;;;;;;;;;;;;;;;;;5052842;28;19913;-47
2022/05/14 04:39:39;;;;;;;;;;;;;;;;;;5049952;28;19916;-50
2022/05/14 04:42:05;;;;;;;;;;;;;;;;;;5052323;28;20372;-49
2022/05/14 04:44:32;;;;;;;;;;;;;;;;;;5053924;28;19908;-46
2022/05/14 04:46:59;;;;;;;;;;;;;;;;;;5052610;28;19931;-50
2022/05/14 04:49:25;;;;;;;;;;;;;;;;;;5049123;28;19958;-51
2022/05/14 04:51:52;;;;;;;;;;;;;;;;;;5053313;28;19916;-52
2022/05/14 04:54:18;;;;;;;;;;;;;;;;;;5054323;28;19967;-55
2022/05/14 04:56:45;;;;;;;;;;;;;;;;;;5053352;28;19911;-50
2022/05/14 04:59:11;;;;;;;;;;;;;;;;;;5054526;28;19916;-48
2022/05/14 05:01:38;;;;;;;;;;;;;;;;;;5054059;28;19924;-54
2022/05/14 05:04:04;;;;;;;;;;;;;;;;;;5054312;28;19955;-56
2022/05/14 05:06:31;;;;;;;;;;;;;;;;;;5054112;28;20000;-55
2022/05/14 05:08:57;;;;;;;;;;;;;;;;;;5053550;28;19909;-52
2022/05/14 05:11:24;;;;;;;;;;;;;;;;;;5054106;28;20352;-47
2022/05/14 05:13:51;;;;;;;;;;;;;;;;;;5054287;28;19909;-45
2022/05/14 05:16:17;;;;;;;;;;;;;;;;;;5052237;28;19978;-48
2022/05/14 05:18:44;;;;;;;;;;;;;;;;;;5054318;28;19909;-57
2022/05/14 05:21:10;;;;;;;;;;;;;;;;;;5053845;28;19917;-51
2022/05/14 05:23:37;;;;;;;;;;;;;;;;;;5054470;28;20367;-51
2022/05/14 05:26:03;;;;;;;;;;;;;;;;;;5054195;28;20240;-54
2022/05/14 05:28:30;;;;;;;;;;;;;;;;;;5054066;28;20311;-52
2022/05/14 05:30:56;;;;;;;;;;;;;;;;;;5053574;28;20276;-56
2022/05/14 05:33:23;;;;;;;;;;;;;;;;;;5053817;28;19909;-49
2022/05/14 05:35:49;;;;;;;;;;;;;;;;;;5053777;28;19928;-52
2022/05/14 05:38:16;;;;;;;;;;;;;;;;;;5053929;28;19909;-46
2022/05/14 05:40:42;;;;;;;;;;;;;;;;;;5054440;28;19912;-53
2022/05/14 05:43:09;;;;;;;;;;;;;;;;;;5054084;28;19920;-54
2022/05/14 05:45:35;;;;;;;;;;;;;;;;;;5053123;28;20399;-53
2022/05/14 05:48:02;;;;;;;;;;;;;;;;;;5054105;28;19915;-46
2022/05/14 05:50:28;;;;;;;;;;;;;;;;;;5053969;28;19913;-53
2022/05/14 05:52:55;;;;;;;;;;;;;;;;;;5054007;28;19909;-54
2022/05/14 05:58:06;;;;;;;;;;;;;;;;;;5033090;28;19967;-51
2022/05/14 06:00:32;;;;;;;;;;;;;;;;;;5031995;28;19919;-56
2022/05/14 06:02:59;;;;;;;;;;;;;;;;;;5033103;28;20392;-56
2022/05/14 06:05:26;;;;;;;;;;;;;;;;;;5033135;28;20017;-49
2022/05/14 06:07:53;;;;;;;;;;;;;;;;;;5032819;28;19943;-53
2022/05/14 06:10:19;;;;;;;;;;;;;;;;;;5032693;28;20331;-55
2022/05/14 06:12:46;;;;;;;;;;;;;;;;;;5030873;28;20384;-56
2022/05/14 06:15:13;;;;;;;;;;;;;;;;;;5032244;28;20287;-53
2022/05/14 06:17:39;;;;;;;;;;;;;;;;;;5032470;28;19909;-55
2022/05/14 06:20:06;;;;;;;;;;;;;;;;;;5033114;28;19912;-54
2022/05/14 06:22:32;;;;;;;;;;;;;;;;;;5032955;28;20368;-52
2022/05/14 06:24:59;;;;;;;;;;;;;;;;;;5031488;28;19924;-50
2022/05/14 06:27:25;;;;;;;;;;;;;;;;;;5032044;28;19975;-53
2022/05/14 06:29:52;;;;;;;;;;;;;;;;;;5032289;28;19951;-54
2022/05/14 06:32:18;;;;;;;;;;;;;;;;;;5032404;28;19913;-45
2022/05/14 06:34:45;;;;;;;;;;;;;;;;;;5032089;28;19979;-55
2022/05/14 06:37:13;;;;;;;;;;;;;;;;;;5032728;28;20340;-52
2022/05/14 06:39:39;;;;;;;;;;;;;;;;;;5032930;28;19955;-57
2022/05/14 06:42:06;;;;;;;;;;;;;;;;;;5032004;28;19917;-54
2022/05/14 06:44:32;;;;;;;;;;;;;;;;;;5032714;28;19925;-57
2022/05/14 06:46:59;;;;;;;;;;;;;;;;;;5032556;28;19986;-52
2022/05/14 06:49:25;;;;;;;;;;;;;;;;;;5032388;28;19909;-48
2022/05/14 06:51:52;;;;;;;;;;;;;;;;;;5032495;28;19916;-61
2022/05/14 06:54:19;;;;;;;;;;;;;;;;;;5032496;28;19944;-57
2022/05/14 06:56:45;;;;;;;;;;;;;;;;;;5031955;28;19917;-55
2022/05/14 06:59:14;;;;;;;;;;;;;;;;;;5032462;28;19919;-50
2022/05/14 07:01:40;;;;;;;;;;;;;;;;;;5032261;28;19920;-49
2022/05/14 07:06:51;;;;;;;;;;;;;;;;;;5032231;28;20354;-50
2022/05/14 07:09:17;;;;;;;;;;;;;;;;;;5032289;28;19916;-51
2022/05/14 07:11:44;;;;;;;;;;;;;;;;;;5031807;28;19935;-47
2022/05/14 07:14:10;;;;;;;;;;;;;;;;;;5031906;28;19924;-50
2022/05/14 07:16:37;;;;;;;;;;;;;;;;;;5032416;28;20288;-46
2022/05/14 07:19:06;;;;;;;;;;;;;;;;;;5031950;28;19920;-53
2022/05/14 07:21:32;;;;;;;;;;;;;;;;;;5031695;28;19917;-49
2022/05/14 07:23:59;;;;;;;;;;;;;;;;;;5030429;28;19913;-51
2022/05/14 07:26:27;;;;;;;;;;;;;;;;;;5032262;28;19909;-51
2022/05/14 07:28:53;;;;;;;;;;;;;;;;;;5032330;28;19909;-53
2022/05/14 07:31:20;;;;;;;;;;;;;;;;;;5031286;28;19916;-49
2022/05/14 07:33:46;;;;;;;;;;;;;;;;;;5031713;28;20008;-47
2022/05/14 07:36:13;;;;;;;;;;;;;;;;;;5031269;28;19913;-44
2022/05/14 07:38:40;;;;;;;;;;;;;;;;;;5031767;28;20302;-50
2022/05/14 07:41:06;;;;;;;;;;;;;;;;;;5032113;28;20263;-44
2022/05/14 07:43:33;;;;;;;;;;;;;;;;;;5032143;28;19921;-46
2022/05/14 07:45:59;;;;;;;;;;;;;;;;;;5031636;28;19913;-49
2022/05/14 07:48:26;;;;;;;;;;;;;;;;;;5031896;28;19910;-49
2022/05/14 07:50:53;;;;;;;;;;;;;;;;;;5038585;28;19908;-56
2022/05/14 07:53:19;;;;;;;;;;;;;;;;;;5051659;28;19913;-47
2022/05/14 07:55:45;;;;;;;;;;;;;;;;;;5051043;28;19913;-52
2022/05/14 07:58:12;;;;;;;;;;;;;;;;;;5051384;28;19909;-49
2022/05/14 08:00:38;;;;;;;;;;;;;;;;;;5051399;28;19909;-46
2022/05/14 08:03:05;;;;;;;;;;;;;;;;;;5051640;28;20364;-49
2022/05/14 08:05:31;;;;;;;;;;;;;;;;;;5051624;28;19954;-49
2022/05/14 08:07:58;;;;;;;;;;;;;;;;;;5050163;28;20473;-47
2022/05/14 08:10:24;;;;;;;;;;;;;;;;;;5051896;28;19909;-54
2022/05/14 08:12:53;;;;;;;;;;;;;;;;;;5051844;28;20407;-56
2022/05/14 08:15:21;;;;;;;;;;;;;;;;;;5050473;28;19958;-51
2022/05/14 08:17:48;;;;;;;;;;;;;;;;;;5048695;28;20027;-58
2022/05/14 08:20:14;;;;;;;;;;;;;;;;;;5048067;28;19913;-53
2022/05/14 08:25:26;;;;;;;;;;;;;;;;;;5050793;28;19963;-54
2022/05/14 08:27:52;;;;;;;;;;;;;;;;;;5049834;28;19916;-51
2022/05/14 08:30:19;;;;;;;;;;;;;;;;;;5050685;28;20344;-53
2022/05/14 08:32:45;;;;;;;;;;;;;;;;;;5053650;28;20324;-53
2022/05/14 08:35:12;;;;;;;;;;;;;;;;;;5054073;28;20379;-56
2022/05/14 08:37:38;;;;;;;;;;;;;;;;;;5053514;28;20318;-41
2022/05/14 08:40:05;;;;;;;;;;;;;;;;;;5048530;28;20000;-46
2022/05/14 08:42:31;;;;;;;;;;;;;;;;;;5053532;28;19916;-54
2022/05/14 08:44:58;;;;;;;;;;;;;;;;;;5053859;28;19996;-55
2022/05/14 08:47:24;;;;;;;;;;;;;;;;;;5052790;28;19916;-59
2022/05/14 08:49:53;;;;;;;;;;;;;;;;;;5053217;28;19915;-54
2022/05/14 08:52:19;;;;;;;;;;;;;;;;;;5053745;28;19912;-50
2022/05/14 08:54:45;;;;;;;;;;;;;;;;;;5054732;28;19909;-58
2022/05/14 08:57:12;;;;;;;;;;;;;;;;;;5054839;28;19908;-55
2022/05/14 08:59:38;;;;;;;;;;;;;;;;;;5055080;28;19909;-55
2022/05/14 09:02:05;;;;;;;;;;;;;;;;;;5054397;28;19924;-44
2022/05/14 09:04:31;;;;;;;;;;;;;;;;;;5053345;28;20360;-54
2022/05/14 09:06:58;;;;;;;;;;;;;;;;;;5054259;28;20379;-53
2022/05/14 09:09:24;;;;;;;;;;;;;;;;;;5054631;28;20404;-48
2022/05/14 09:11:51;;;;;;;;;;;;;;;;;;5054265;28;19948;-49
2022/05/14 09:14:17;;;;;;;;;;;;;;;;;;5054030;28;20355;-59
2022/05/14 09:16:44;;;;;;;;;;;;;;;;;;5052166;28;20368;-43
2022/05/14 09:19:10;;;;;;;;;;;;;;;;;;5052597;28;19908;-53
2022/05/14 09:21:38;;;;;;;;;;;;;;;;;;5053206;28;19916;-48
2022/05/14 09:24:05;;;;;;;;;;;;;;;;;;5055059;28;19931;-51
2022/05/14 09:26:32;;;;;;;;;;;;;;;;;;5053052;28;19987;-57
2022/05/14 09:28:58;;;;;;;;;;;;;;;;;;5052992;28;20233;-47
2022/05/14 09:31:25;;;;;;;;;;;;;;;;;;5052444;28;19979;-56
2022/05/14 09:33:51;;;;;;;;;;;;;;;;;;5053387;28;20421;-52
2022/05/14 09:36:18;;;;;;;;;;;;;;;;;;5053597;28;20007;-48
2022/05/14 09:38:45;;;;;;;;;;;;;;;;;;5052749;28;19909;-52
2022/05/14 09:41:11;;;;;;;;;;;;;;;;;;5052284;28;19963;-48
2022/05/14 09:43:38;;;;;;;;;;;;;;;;;;5052643;28;19966;-51
2022/05/14 09:46:05;;;;;;;;;;;;;;;;;;5053593;28;19948;-49
2022/05/14 09:48:31;;;;;;;;;;;;;;;;;;5051574;28;19928;-50
2022/05/14 09:50:58;;;;;;;;;;;;;;;;;;5052014;28;20283;-58
2022/05/14 09:53:24;;;;;;;;;;;;;;;;;;5051968;28;20430;-48
2022/05/14 09:55:51;;;;;;;;;;;;;;;;;;5050812;28;19956;-48
2022/05/14 09:58:17;;;;;;;;;;;;;;;;;;5049651;28;19958;-48
2022/05/14 10:00:44;;;;;;;;;;;;;;;;;;5051420;28;20002;-52
2022/05/14 10:03:10;;;;;;;;;;;;;;;;;;5050856;28;20237;-47
2022/05/14 10:05:37;;;;;;;;;;;;;;;;;;5054300;28;20015;-54
2022/05/14 10:08:03;;;;;;;;;;;;;;;;;;5049614;28;19970;-46
2022/05/14 10:10:30;;;;;;;;;;;;;;;;;;5049357;28;20096;-53
2022/05/14 10:12:56;;;;;;;;;;;;;;;;;;5051447;28;19966;-48
2022/05/14 10:15:23;;;;;;;;;;;;;;;;;;5052354;28;19972;-51
2022/05/14 10:17:49;;;;;;;;;;;;;;;;;;5051218;28;19908;-56
2022/05/14 10:20:16;;;;;;;;;;;;;;;;;;5048467;28;21055;-44
2022/05/14 10:28:12;;;;;;;;;;;;;;;;;;5053669;28;19962;-46
2022/05/14 10:30:39;;;;;;;;;;;;;;;;;;5053706;28;20356;-56
2022/05/14 10:33:05;;;;;;;;;;;;;;;;;;5054014;28;20274;-51
2022/05/14 10:35:31;;;;;;;;;;;;;;;;;;5053385;28;19935;-51
2022/05/14 10:37:58;;;;;;;;;;;;;;;;;;5050311;28;19920;-48
2022/05/14 10:40:25;;;;;;;;;;;;;;;;;;5050769;28;19912;-52
2022/05/14 10:42:51;;;;;;;;;;;;;;;;;;5053354;28;19964;-57
2022/05/14 10:45:18;;;;;;;;;;;;;;;;;;5049585;28;19909;-52
2022/05/14 10:47:45;;;;;;;;;;;;;;;;;;5049732;28;19915;-48
2022/05/14 10:50:12;;;;;;;;;;;;;;;;;;5050511;28;19913;-58
2022/05/14 10:52:39;;;;;;;;;;;;;;;;;;5051159;28;20375;-44
2022/05/14 10:55:06;;;;;;;;;;;;;;;;;;5049923;28;19912;-53
2022/05/14 10:57:42;;;;;;;;;;;;;;;;;;5053656;28;19912;-51
2022/05/14 11:00:09;;;;;;;;;;;;;;;;;;5017849;28;19909;-55
2022/05/14 11:02:36;;;;;;;;;;;;;;;;;;5051359;28;19917;-49
2022/05/14 11:05:02;;;;;;;;;;;;;;;;;;5053658;28;19919;-45
2022/05/14 11:07:29;;;;;;;;;;;;;;;;;;5053110;28;19927;-51
2022/05/14 11:10:06;;;;;;;;;;;;;;;;;;;;;
2022/05/14 11:12:33;;;;;;;;;;;;;;;;;;5052689;28;19908;-54
2022/05/14 11:14:59;;;;;;;;;;;;;;;;;;5052411;28;20340;-46
2022/05/14 11:17:26;;;;;;;;;;;;;;;;;;5053197;28;19909;-52
2022/05/14 11:19:53;;;;;;;;;;;;;;;;;;5052915;28;19931;-46
2022/05/14 11:22:22;;;;;;;;;;;;;;;;;;5053703;28;19917;-49
2022/05/14 11:24:49;;;;;;;;;;;;;;;;;;5053427;28;19909;-53
2022/05/14 11:27:15;;;;;;;;;;;;;;;;;;5052069;28;19909;-51
2022/05/14 11:29:42;;;;;;;;;;;;;;;;;;5053382;28;20370;-54
2022/05/14 11:32:08;;;;;;;;;;;;;;;;;;5052891;28;20263;-47
2022/05/14 11:34:35;;;;;;;;;;;;;;;;;;5053066;28;19936;-52
2022/05/14 11:37:02;;;;;;;;;;;;;;;;;;5052725;28;19909;-49
2022/05/14 11:39:29;;;;;;;;;;;;;;;;;;5053077;28;19913;-43
2022/05/14 11:41:56;;;;;;;;;;;;;;;;;;5052832;28;19939;-56
2022/05/14 11:44:22;;;;;;;;;;;;;;;;;;5052755;28;19913;-53
2022/05/14 11:46:48;;;;;;;;;;;;;;;;;;5052673;28;19916;-53
2022/05/14 11:49:15;;;;;;;;;;;;;;;;;;5052728;28;19909;-57
2022/05/14 11:51:41;;;;;;;;;;;;;;;;;;5052841;28;19909;-50
2022/05/14 11:54:08;;;;;;;;;;;;;;;;;;5052340;28;19932;-52
2022/05/14 11:56:34;;;;;;;;;;;;;;;;;;5052461;28;19919;-48
2022/05/14 11:59:01;;;;;;;;;;;;;;;;;;5055389;28;20360;-49
2022/05/14 12:01:28;;;;;;;;;;;;;;;;;;5056472;28;20278;-51
2022/05/14 12:03:59;;;;;;;;;;;;;;;;;;5056651;28;19919;-49
2022/05/14 12:06:25;;;;;;;;;;;;;;;;;;5055956;28;19923;-53
2022/05/14 12:08:52;;;;;;;;;;;;;;;;;;5056398;28;19993;-57
2022/05/14 12:11:19;;;;;;;;;;;;;;;;;;5056364;28;19955;-50
2022/05/14 12:13:45;;;;;;;;;;;;;;;;;;5056206;28;19916;-54
2022/05/14 12:16:12;;;;;;;;;;;;;;;;;;5055659;28;19909;-50
2022/05/14 12:18:38;;;;;;;;;;;;;;;;;;5056226;28;19909;-52
2022/05/14 12:21:05;;;;;;;;;;;;;;;;;;5056128;28;19916;-46
2022/05/14 12:23:31;;;;;;;;;;;;;;;;;;5055340;28;19967;-51
2022/05/14 12:25:58;;;;;;;;;;;;;;;;;;5055265;28;19927;-55
2022/05/14 12:28:24;;;;;;;;;;;;;;;;;;5055513;28;19912;-50
2022/05/14 12:33:35;;;;;;;;;;;;;;;;;;5055543;28;19916;-53
2022/05/14 12:36:02;;;;;;;;;;;;;;;;;;5055324;28;19955;-49
2022/05/14 12:38:28;;;;;;;;;;;;;;;;;;5055065;28;20354;-45
2022/05/14 12:40:55;;;;;;;;;;;;;;;;;;5055405;28;20007;-52
2022/05/14 12:43:21;;;;;;;;;;;;;;;;;;5055411;28;19917;-51
2022/05/14 12:45:48;;;;;;;;;;;;;;;;;;5054908;28;19909;-53
2022/05/14 12:48:14;;;;;;;;;;;;;;;;;;5055335;28;20378;-54
2022/05/14 12:50:41;;;;;;;;;;;;;;;;;;5055402;28;19909;-56
2022/05/14 12:53:08;;;;;;;;;;;;;;;;;;5054297;28;19916;-53
2022/05/14 12:55:34;;;;;;;;;;;;;;;;;;5055098;28;19951;-45
2022/05/14 12:58:04;;;;;;;;;;;;;;;;;;5054840;28;19964;-50
2022/05/14 13:00:30;;;;;;;;;;;;;;;;;;5054394;28;19915;-49
2022/05/14 13:02:57;;;;;;;;;;;;;;;;;;5055250;28;19917;-57
2022/05/14 13:05:24;;;;;;;;;;;;;;;;;;5054925;28;20264;-53
2022/05/14 13:07:50;;;;;;;;;;;;;;;;;;5054694;28;19920;-54
2022/05/14 13:10:16;;;;;;;;;;;;;;;;;;5053752;28;19999;-48
2022/05/14 13:12:43;;;;;;;;;;;;;;;;;;5055301;28;19912;-51
2022/05/14 13:15:10;;;;;;;;;;;;;;;;;;5054560;28;19908;-52
2022/05/14 13:17:36;;;;;;;;;;;;;;;;;;5054835;28;19952;-51
2022/05/14 13:20:04;;;;;;;;;;;;;;;;;;5054684;28;19955;-50
2022/05/14 13:22:30;;;;;;;;;;;;;;;;;;5054679;28;19917;-56
2022/05/14 13:24:57;;;;;;;;;;;;;;;;;;5054156;28;19916;-52
2022/05/14 13:27:23;;;;;;;;;;;;;;;;;;5054748;28;20248;-49
2022/05/14 13:29:50;;;;;;;;;;;;;;;;;;5054554;28;20283;-51
2022/05/14 13:32:16;;;;;;;;;;;;;;;;;;5054421;28;19909;-51
2022/05/14 13:37:27;;;;;;;;;;;;;;;;;;5054794;28;20386;-53
2022/05/14 13:39:54;;;;;;;;;;;;;;;;;;5054253;28;19908;-54
2022/05/14 13:42:20;;;;;;;;;;;;;;;;;;5054247;28;19924;-49
2022/05/14 13:44:46;;;;;;;;;;;;;;;;;;5054418;28;19920;-51
2022/05/14 13:47:13;;;;;;;;;;;;;;;;;;5054215;28;20352;-53
2022/05/14 13:49:39;;;;;;;;;;;;;;;;;;5053730;28;19916;-57
2022/05/14 13:52:06;;;;;;;;;;;;;;;;;;5054246;28;20367;-50
2022/05/14 13:54:32;;;;;;;;;;;;;;;;;;5053870;28;20318;-49
2022/05/14 13:56:59;;;;;;;;;;;;;;;;;;5054242;28;20362;-53
2022/05/14 13:59:27;;;;;;;;;;;;;;;;;;5054217;28;19934;-52
2022/05/14 14:01:57;;;;;;;;;;;;;;;;;;5053881;28;19920;-40
2022/05/14 14:04:23;;;;;;;;;;;;;;;;;;5054182;28;19920;-52
2022/05/14 14:06:49;;;;;;;;;;;;;;;;;;5054068;28;20271;-53
2022/05/14 14:09:16;;;;;;;;;;;;;;;;;;5053048;28;20344;-47
2022/05/14 14:11:44;;;;;;;;;;;;;;;;;;5053981;28;19909;-52
2022/05/14 14:14:11;;;;;;;;;;;;;;;;;;5052268;28;20379;-48
2022/05/14 14:16:37;;;;;;;;;;;;;;;;;;5053291;28;20275;-54
2022/05/14 14:19:04;;;;;;;;;;;;;;;;;;5053776;28;19916;-51
2022/05/14 14:21:30;;;;;;;;;;;;;;;;;;5052743;28;19917;-48
2022/05/14 14:23:57;;;;;;;;;;;;;;;;;;5053369;28;19920;-51
2022/05/14 14:26:23;;;;;;;;;;;;;;;;;;5053608;28;19916;-54
2022/05/14 14:28:50;;;;;;;;;;;;;;;;;;5053861;28;19916;-57
2022/05/14 14:31:17;;;;;;;;;;;;;;;;;;5053690;28;19921;-53
2022/05/14 14:33:43;;;;;;;;;;;;;;;;;;5053540;28;19909;-48
2022/05/14 14:36:10;;;;;;;;;;;;;;;;;;5052928;28;19908;-57
2022/05/14 14:38:36;;;;;;;;;;;;;;;;;;5052914;28;19935;-55
2022/05/14 14:41:03;;;;;;;;;;;;;;;;;;5053415;28;19909;-55
2022/05/14 14:43:29;;;;;;;;;;;;;;;;;;5053215;28;19999;-50
2022/05/14 14:45:56;;;;;;;;;;;;;;;;;;5052896;28;20307;-53
2022/05/14 14:48:24;;;;;;;;;;;;;;;;;;5053558;28;19908;-56
2022/05/14 14:50:50;;;;;;;;;;;;;;;;;;5053110;28;19916;-54
2022/05/14 14:53:17;;;;;;;;;;;;;;;;;;5052696;28;19948;-51
2022/05/14 14:55:43;;;;;;;;;;;;;;;;;;5053124;28;19909;-55
2022/05/14 14:58:11;;;;;;;;;;;;;;;;;;5053020;28;19909;-58
2022/05/14 15:00:42;;;;;;;;;;;;;;;;;;5053132;28;20248;-55
2022/05/14 15:03:08;;;;;;;;;;;;;;;;;;5053033;28;19939;-49
2022/05/14 15:05:35;;;;;;;;;;;;;;;;;;5053158;28;20000;-50
2022/05/14 15:08:02;;;;;;;;;;;;;;;;;;5052162;28;20279;-56
2022/05/14 15:10:28;;;;;;;;;;;;;;;;;;5053259;28;19909;-58
2022/05/14 15:12:55;;;;;;;;;;;;;;;;;;5052966;28;19909;-53
2022/05/14 15:15:21;;;;;;;;;;;;;;;;;;5052773;28;19908;-52
2022/05/14 15:17:47;;;;;;;;;;;;;;;;;;5053083;28;19909;-50
2022/05/14 15:20:15;;;;;;;;;;;;;;;;;;5052566;28;19912;-49
2022/05/14 15:22:41;;;;;;;;;;;;;;;;;;5052601;28;19917;-53
2022/05/14 15:25:07;;;;;;;;;;;;;;;;;;5052651;28;20004;-48
2022/05/14 15:27:34;;;;;;;;;;;;;;;;;;5052907;28;19913;-52
2022/05/14 15:30:00;;;;;;;;;;;;;;;;;;5052630;28;19916;-51
2022/05/14 15:32:27;;;;;;;;;;;;;;;;;;5053197;28;19939;-57
2022/05/14 15:34:53;;;;;;;;;;;;;;;;;;5057048;28;19916;-54
2022/05/14 15:37:20;;;;;;;;;;;;;;;;;;5056825;28;19915;-49
2022/05/14 15:39:46;;;;;;;;;;;;;;;;;;5056864;28;20283;-58
2022/05/14 15:42:13;;;;;;;;;;;;;;;;;;5056584;28;19913;-46
2022/05/14 15:44:39;;;;;;;;;;;;;;;;;;5056659;28;20003;-54
2022/05/14 15:47:06;;;;;;;;;;;;;;;;;;5056670;28;19909;-53
2022/05/14 15:49:32;;;;;;;;;;;;;;;;;;5056582;28;19947;-56
2022/05/14 15:52:00;;;;;;;;;;;;;;;;;;5056422;28;19908;-54
2022/05/14 15:54:27;;;;;;;;;;;;;;;;;;5055969;28;19927;-48
2022/05/14 15:56:53;;;;;;;;;;;;;;;;;;5056345;28;19909;-53
2022/05/14 15:59:20;;;;;;;;;;;;;;;;;;5056532;28;19909;-52
2022/05/14 16:01:47;;;;;;;;;;;;;;;;;;5056149;28;19924;-47
2022/05/14 16:04:13;;;;;;;;;;;;;;;;;;5056286;28;19940;-53
2022/05/14 16:06:40;;;;;;;;;;;;;;;;;;5056333;28;19970;-58
2022/05/14 16:09:06;;;;;;;;;;;;;;;;;;5056262;28;19970;-53
2022/05/14 16:17:02;;;;;;;;;;;;;;;;;;5056335;28;19963;-54
2022/05/14 16:19:29;;;;;;;;;;;;;;;;;;5056128;28;19909;-43
2022/05/14 16:21:55;;;;;;;;;;;;;;;;;;5055799;28;19917;-49
2022/05/14 16:24:22;;;;;;;;;;;;;;;;;;5055970;28;19966;-53
2022/05/14 16:26:48;;;;;;;;;;;;;;;;;;5055893;28;19909;-48
2022/05/14 16:29:15;;;;;;;;;;;;;;;;;;5055996;28;20284;-44
2022/05/14 16:31:41;;;;;;;;;;;;;;;;;;5055857;28;19909;-40
2022/05/14 16:34:08;;;;;;;;;;;;;;;;;;5055774;28;20355;-43
2022/05/14 16:36:34;;;;;;;;;;;;;;;;;;5055920;28;19912;-51
2022/05/14 16:39:00;;;;;;;;;;;;;;;;;;5055627;28;19969;-52
2022/05/14 16:41:27;;;;;;;;;;;;;;;;;;5055657;28;19913;-46
2022/05/14 16:43:53;;;;;;;;;;;;;;;;;;5055196;28;20261;-44
2022/05/14 16:46:20;;;;;;;;;;;;;;;;;;5055760;28;20378;-46
2022/05/14 16:48:46;;;;;;;;;;;;;;;;;;5055652;28;20338;-47
2022/05/14 16:51:13;;;;;;;;;;;;;;;;;;5055443;28;19909;-56
2022/05/14 16:53:39;;;;;;;;;;;;;;;;;;5055430;28;20020;-49
2022/05/14 16:56:06;;;;;;;;;;;;;;;;;;5055311;28;19909;-40
2022/05/14 16:58:32;;;;;;;;;;;;;;;;;;5055498;28;19909;-44
2022/05/14 17:00:58;;;;;;;;;;;;;;;;;;5055380;28;19913;-50
2022/05/14 17:03:25;;;;;;;;;;;;;;;;;;5055173;28;20020;-52
2022/05/14 17:05:51;;;;;;;;;;;;;;;;;;5055185;28;20046;-48
2022/05/14 17:08:18;;;;;;;;;;;;;;;;;;5054952;28;20371;-51
2022/05/14 17:10:44;;;;;;;;;;;;;;;;;;5055210;28;20240;-56